createdAt,value
2023-03-06T00:03:48.403Z,-0.15
2023-03-06T00:08:50.916Z,-0.15
2023-03-06T00:13:58.824Z,-0.21
2023-03-06T00:19:00.583Z,-0.31
2023-03-06T00:24:02.298Z,-0.40
2023-03-06T00:29:04.151Z,-0.41
2023-03-06T00:34:05.912Z,-0.42
2023-03-06T00:39:08.184Z,-0.45
2023-03-06T00:44:10.654Z,-0.52
2023-03-06T00:49:15.099Z,-0.68
2023-03-06T00:54:36.875Z,-0.74
2023-03-06T00:59:38.575Z,-0.71
2023-03-06T01:04:40.360Z,-0.63
2023-03-06T01:09:42.053Z,-0.56
2023-03-06T01:14:43.886Z,-0.55
2023-03-06T01:19:45.577Z,-0.59
2023-03-06T01:24:48.632Z,-0.58
2023-03-06T01:29:50.323Z,-0.52
2023-03-06T01:34:52.080Z,-0.48
2023-03-06T01:39:53.762Z,-0.51
2023-03-06T01:45:06.474Z,-0.52
2023-03-06T01:50:11.895Z,-0.45
2023-03-06T01:55:18.079Z,-0.37
2023-03-06T02:00:26.034Z,-0.36
2023-03-06T02:05:27.944Z,-0.40
2023-03-06T02:10:30.144Z,-0.43
2023-03-06T02:15:31.999Z,-0.40
2023-03-06T02:20:40.290Z,-0.37
2023-03-06T02:25:50.478Z,-0.32
2023-03-06T02:30:54.935Z,-0.29
2023-03-06T02:36:03.439Z,-0.33
2023-03-06T02:41:08.251Z,-0.31
2023-03-06T02:46:10.261Z,-0.24
2023-03-06T02:51:12.306Z,-0.14
2023-03-06T02:56:15.353Z,-0.12
2023-03-06T03:01:17.765Z,-0.15
2023-03-06T03:06:19.918Z,-0.27
2023-03-06T03:11:21.986Z,-0.37
2023-03-06T03:16:23.931Z,-0.38
2023-03-06T03:21:26.126Z,-0.37
2023-03-06T03:26:29.045Z,-0.43
2023-03-06T03:31:35.513Z,-0.56
2023-03-06T03:36:38.136Z,-0.70
2023-03-06T03:41:41.332Z,-0.79
2023-03-06T03:46:44.107Z,-0.76
2023-03-06T03:51:50.258Z,-0.68
2023-03-06T03:56:52.958Z,-0.70
2023-03-06T04:01:59.460Z,-0.72
2023-03-06T04:07:02.349Z,-0.79
2023-03-06T04:12:04.330Z,-0.87
2023-03-06T04:17:07.101Z,-0.90
2023-03-06T04:22:09.172Z,-0.86
2023-03-06T04:27:12.111Z,-0.78
2023-03-06T04:32:14.949Z,-0.74
2023-03-06T04:37:20.981Z,-0.77
2023-03-06T04:42:23.168Z,-0.81
2023-03-06T04:47:24.960Z,-0.85
2023-03-06T04:52:26.646Z,-0.86
2023-03-06T04:57:28.294Z,-0.79
2023-03-06T05:02:30.302Z,-0.70
2023-03-06T05:07:32.140Z,-0.66
2023-03-06T05:12:38.037Z,-0.70
2023-03-06T05:17:40.165Z,-0.74
2023-03-06T05:22:42.418Z,-0.74
2023-03-06T05:27:44.128Z,-0.66
2023-03-06T05:32:45.882Z,-0.56
2023-03-06T05:37:48.679Z,-0.49
2023-03-06T05:42:50.651Z,-0.45
2023-03-06T05:47:52.359Z,-0.45
2023-03-06T05:52:54.365Z,-0.39
2023-03-06T05:57:56.186Z,-0.26
2023-03-06T06:03:01.128Z,-0.12
2023-03-06T06:08:03.142Z,-0.01
2023-03-06T06:13:05.335Z,0.12
2023-03-06T06:18:07.083Z,0.28
2023-03-06T06:23:11.423Z,0.46
2023-03-06T06:28:13.159Z,0.62
2023-03-06T06:33:14.830Z,0.82
2023-03-06T06:38:16.770Z,1.00
2023-03-06T06:43:18.425Z,1.21
2023-03-06T06:48:20.204Z,1.43
2023-03-06T06:53:22.096Z,1.66
2023-03-06T06:58:23.948Z,1.89
2023-03-06T07:03:25.632Z,2.12
2023-03-06T07:08:27.934Z,2.29
2023-03-06T07:13:29.863Z,2.48
2023-03-06T07:18:31.649Z,2.68
2023-03-06T07:23:33.454Z,2.85
2023-03-06T07:28:46.290Z,3.08
2023-03-06T07:33:54.822Z,3.40
2023-03-06T07:38:56.566Z,3.74
2023-03-06T07:43:58.587Z,3.89
2023-03-06T07:49:00.302Z,3.92
2023-03-06T07:54:02.072Z,3.97
2023-03-06T07:59:03.994Z,4.05
2023-03-06T08:04:06.276Z,4.17
2023-03-06T08:09:08.144Z,4.19
2023-03-06T08:14:09.848Z,4.27
2023-03-06T08:19:11.557Z,4.43
2023-03-06T08:24:16.603Z,4.61
2023-03-06T08:29:18.723Z,4.86
2023-03-06T08:34:24.321Z,5.05
2023-03-06T08:39:26.130Z,5.07
2023-03-06T08:44:27.835Z,4.90
2023-03-06T08:49:30.133Z,4.78
2023-03-06T08:54:34.175Z,4.71
2023-03-06T08:59:37.140Z,4.67
2023-03-06T09:04:38.823Z,4.76
2023-03-06T09:09:40.797Z,4.89
2023-03-06T09:14:42.483Z,5.01
2023-03-06T09:19:44.372Z,5.11
2023-03-06T09:24:46.413Z,5.19
2023-03-06T09:29:48.968Z,5.35
2023-03-06T09:34:50.709Z,5.43
2023-03-06T09:39:52.476Z,5.46
2023-03-06T09:44:58.301Z,5.49
2023-03-06T09:50:24.366Z,5.60
2023-03-06T09:55:31.205Z,5.66
2023-03-06T10:00:44.279Z,5.63
2023-03-06T10:05:53.852Z,5.72
2023-03-06T10:11:18.508Z,6.01
2023-03-06T10:16:30.611Z,6.27
2023-03-06T10:22:00.141Z,6.53
2023-03-06T10:27:27.070Z,6.74
2023-03-06T10:32:48.564Z,6.96
2023-03-06T10:37:51.025Z,6.94
2023-03-06T10:43:05.110Z,7.13
2023-03-06T10:48:19.753Z,7.44
2023-03-06T10:53:29.017Z,7.73
2023-03-06T10:58:32.614Z,7.90
2023-03-06T11:03:36.602Z,7.96
2023-03-06T11:08:39.836Z,7.91
2023-03-06T11:13:43.756Z,7.82
2023-03-06T11:18:56.757Z,7.62
2023-03-06T11:24:14.283Z,7.42
2023-03-06T11:29:47.221Z,7.32
2023-03-06T11:34:59.785Z,7.16
2023-03-06T11:40:11.972Z,7.08
2023-03-06T11:45:37.368Z,7.34
2023-03-06T11:51:06.395Z,7.56
2023-03-06T11:56:43.720Z,7.82
2023-03-06T12:01:48.183Z,7.98
2023-03-06T12:07:31.802Z,8.00
2023-03-06T12:13:12.522Z,7.96
2023-03-06T12:18:41.499Z,7.96
2023-03-06T12:24:02.479Z,7.91
2023-03-06T12:30:01.887Z,7.69
2023-03-06T12:35:35.665Z,7.19
2023-03-06T12:40:55.585Z,7.03
2023-03-06T12:46:03.586Z,6.91
2023-03-06T12:51:07.480Z,6.79
2023-03-06T12:56:13.414Z,6.64
2023-03-06T13:01:52.590Z,6.55
2023-03-06T13:07:22.788Z,6.84
2023-03-06T13:12:36.398Z,7.12
2023-03-06T13:17:38.714Z,7.38
2023-03-06T13:22:42.619Z,7.51
2023-03-06T13:27:53.354Z,7.33
2023-03-06T13:32:56.144Z,7.20
2023-03-06T13:38:00.976Z,7.04
2023-03-06T13:43:15.754Z,6.70
2023-03-06T13:48:43.073Z,6.42
2023-03-06T13:54:04.120Z,6.42
2023-03-06T13:59:31.967Z,6.37
2023-03-06T14:04:46.197Z,6.44
2023-03-06T14:09:56.108Z,6.17
2023-03-06T14:15:12.232Z,5.72
2023-03-06T14:20:17.669Z,5.45
2023-03-06T14:25:31.406Z,5.28
2023-03-06T14:30:33.427Z,5.11
2023-03-06T14:35:35.187Z,5.05
2023-03-06T14:40:44.975Z,5.02
2023-03-06T14:45:57.775Z,5.07
2023-03-06T14:50:59.473Z,5.08
2023-03-06T14:56:06.043Z,5.01
2023-03-06T15:01:16.092Z,4.87
2023-03-06T15:06:35.805Z,4.74
2023-03-06T15:12:04.915Z,4.62
2023-03-06T15:17:19.201Z,4.51
2023-03-06T15:22:25.346Z,4.39
2023-03-06T15:27:30.496Z,4.28
2023-03-06T15:32:34.867Z,4.23
2023-03-06T15:37:36.581Z,4.21
2023-03-06T15:42:38.287Z,4.19
2023-03-06T15:47:39.945Z,4.14
2023-03-06T15:52:41.825Z,4.05
2023-03-06T15:57:56.985Z,3.96
2023-03-06T16:02:59.051Z,3.83
2023-03-06T16:08:00.727Z,3.71
2023-03-06T16:13:06.688Z,3.59
2023-03-06T16:18:11.686Z,3.42
2023-03-06T16:23:15.041Z,3.27
2023-03-06T16:28:17.017Z,3.19
2023-03-06T16:33:18.693Z,3.14
2023-03-06T16:38:20.355Z,3.10
2023-03-06T16:43:22.079Z,2.98
2023-03-06T16:48:23.844Z,2.77
2023-03-06T16:53:25.750Z,2.69
2023-03-06T16:58:29.938Z,2.57
2023-03-06T17:03:31.629Z,2.46
2023-03-06T17:08:33.324Z,2.38
2023-03-06T17:13:35.087Z,2.34
2023-03-06T17:18:36.797Z,2.38
2023-03-06T17:23:38.752Z,2.48
2023-03-06T17:28:41.656Z,2.60
2023-03-06T17:33:44.005Z,2.69
2023-03-06T17:38:46.026Z,2.70
2023-03-06T17:43:47.797Z,2.68
2023-03-06T17:48:49.528Z,2.68
2023-03-06T17:53:52.254Z,2.67
2023-03-06T17:58:54.058Z,2.67
2023-03-06T18:03:56.443Z,2.73
2023-03-06T18:08:58.474Z,2.84
2023-03-06T18:14:00.196Z,2.95
2023-03-06T18:19:02.293Z,3.03
2023-03-06T18:24:04.161Z,3.06
2023-03-06T18:29:06.056Z,3.06
2023-03-06T18:34:10.990Z,3.05
2023-03-06T18:39:14.035Z,2.99
2023-03-06T18:44:17.623Z,2.91
2023-03-06T18:49:19.509Z,2.85
2023-03-06T18:54:21.584Z,2.79
2023-03-06T18:59:23.708Z,2.72
2023-03-06T19:04:26.165Z,2.68
2023-03-06T19:09:28.047Z,2.66
2023-03-06T19:14:30.203Z,2.68
2023-03-06T19:19:32.078Z,2.73
2023-03-06T19:24:34.151Z,2.77
2023-03-06T19:29:36.282Z,2.70
2023-03-06T19:34:37.960Z,2.55
2023-03-06T19:39:39.686Z,2.37
2023-03-06T19:44:41.498Z,2.02
2023-03-06T19:49:43.507Z,2.02
2023-03-06T19:54:47.225Z,1.92
2023-03-06T19:59:51.365Z,1.85
2023-03-06T20:04:54.567Z,1.83
2023-03-06T20:10:00.414Z,1.81
2023-03-06T20:15:03.714Z,1.77
2023-03-06T20:20:06.098Z,1.73
2023-03-06T20:25:10.685Z,1.66
2023-03-06T20:30:12.552Z,1.61
2023-03-06T20:35:14.255Z,1.55
2023-03-06T20:40:16.036Z,1.47
2023-03-06T20:45:17.803Z,1.36
2023-03-06T20:50:19.457Z,1.24
2023-03-06T20:55:21.363Z,1.18
2023-03-06T21:00:23.026Z,1.17
2023-03-06T21:05:24.738Z,1.13
2023-03-06T21:10:26.509Z,1.02
2023-03-06T21:15:30.054Z,0.84
2023-03-06T21:20:33.686Z,0.67
2023-03-06T21:25:35.451Z,0.57
2023-03-06T21:30:37.170Z,0.53
2023-03-06T21:35:41.400Z,0.50
2023-03-06T21:40:44.679Z,0.44
2023-03-06T21:45:48.061Z,0.32
2023-03-06T21:50:49.748Z,0.21
2023-03-06T21:55:51.491Z,0.17
2023-03-06T22:00:53.712Z,0.20
2023-03-06T22:05:56.669Z,0.29
2023-03-06T22:10:59.056Z,0.32
2023-03-06T22:16:07.793Z,0.29
2023-03-06T22:21:12.199Z,0.21
2023-03-06T22:26:15.440Z,0.20
2023-03-06T22:31:26.307Z,0.27
2023-03-06T22:36:32.718Z,0.39
2023-03-06T22:41:35.620Z,0.50
2023-03-06T22:46:57.839Z,0.60
2023-03-06T22:52:19.686Z,0.64
2023-03-06T22:57:21.659Z,0.71
2023-03-06T23:02:23.535Z,0.81
2023-03-06T23:07:25.330Z,0.90
2023-03-06T23:12:35.643Z,0.94
2023-03-06T23:17:57.020Z,0.93
2023-03-06T23:23:18.099Z,0.93
2023-03-06T23:28:20.118Z,0.95
2023-03-06T23:33:22.467Z,1.04
2023-03-06T23:38:24.143Z,1.14
2023-03-06T23:43:25.874Z,1.21
2023-03-06T23:48:27.883Z,1.23
2023-03-06T23:53:29.580Z,1.17
2023-03-06T23:58:31.834Z,1.08
